METAR Data
IDs: Format: Raw Decoded Include TAF

Data at: 0227 UTC 25 Feb 2021

EFVA 250220Z AUTO 20005KT CAVOK 01/00 Q1006